Time;durP1;ratioP1;P1;durP2;ratioP2;P2;SDS_P1;SDS_P2;PMS_P1;PMS_P2;Temp;Humidity;BMP_temperature;BMP_pressure;BME280_temperature;BME280_humidity;BME280_pressure;Samples;Min_cycle;Max_cycle;Signal;HPM_P1;HPM_P2
2022/01/07 00:02:00;;;;;;;17.63;6.38;;;;;;;;;;5147283;27;20486;-57
2022/01/07 00:04:27;;;;;;;25.25;6.07;;;;;;;;;;5145399;27;20074;-57
2022/01/07 00:06:53;;;;;;;21.73;6.82;;;;;;;;;;5140697;27;20125;-57
2022/01/07 00:09:19;;;;;;;15.95;6.63;;;;;;;;;;5146907;27;20043;-58
2022/01/07 00:11:45;;;;;;;18.45;5.63;;;;;;;;;;5147675;27;20104;-58
2022/01/07 00:14:11;;;;;;;16.88;6.30;;;;;;;;;;5147363;27;20043;-58
2022/01/07 00:16:38;;;;;;;15.77;5.93;;;;;;;;;;5148464;27;20157;-58
2022/01/07 00:19:04;;;;;;;19.27;6.32;;;;;;;;;;5149035;27;20050;-57
2022/01/07 00:21:30;;;;;;;15.00;6.38;;;;;;;;;;5147397;27;20050;-58
2022/01/07 00:23:56;;;;;;;16.90;5.93;;;;;;;;;;5148514;27;20059;-57
2022/01/07 00:26:22;;;;;;;20.23;6.97;;;;;;;;;;5148374;27;20064;-58
2022/01/07 00:28:48;;;;;;;12.93;6.45;;;;;;;;;;5148511;27;20035;-57
2022/01/07 00:31:15;;;;;;;15.23;5.88;;;;;;;;;;5147556;27;20047;-58
2022/01/07 00:33:41;;;;;;;14.43;5.95;;;;;;;;;;5148191;27;20125;-57
2022/01/07 00:36:08;;;;;;;19.98;6.38;;;;;;;;;;5147706;27;20455;-57
2022/01/07 00:38:34;;;;;;;17.27;6.73;;;;;;;;;;5148241;27;20114;-57
2022/01/07 00:41:00;;;;;;;16.17;5.45;;;;;;;;;;5147868;27;20068;-58
2022/01/07 00:43:26;;;;;;;17.17;5.97;;;;;;;;;;5148096;27;20140;-58
2022/01/07 00:45:52;;;;;;;20.25;6.70;;;;;;;;;;5148374;27;20094;-58
2022/01/07 00:48:18;;;;;;;21.13;7.47;;;;;;;;;;5147673;27;20160;-58
2022/01/07 00:50:44;;;;;;;17.55;8.02;;;;;;;;;;5147008;27;20076;-58
2022/01/07 00:53:10;;;;;;;16.58;7.65;;;;;;;;;;5147933;27;20043;-58
2022/01/07 00:55:36;;;;;;;14.88;6.68;;;;;;;;;;5147794;27;20050;-58
2022/01/07 00:58:03;;;;;;;17.70;6.97;;;;;;;;;;5147905;27;20043;-58
2022/01/07 01:00:29;;;;;;;19.48;8.10;;;;;;;;;;5147798;27;20126;-58
2022/01/07 01:02:56;;;;;;;17.50;7.72;;;;;;;;;;5147827;27;20054;-58
2022/01/07 01:05:22;;;;;;;21.20;8.55;;;;;;;;;;5147047;27;20128;-57
2022/01/07 01:07:49;;;;;;;16.33;7.63;;;;;;;;;;5147411;27;20118;-58
2022/01/07 01:10:16;;;;;;;23.75;7.88;;;;;;;;;;5147327;27;20047;-58
2022/01/07 01:12:43;;;;;;;25.02;7.95;;;;;;;;;;5147631;27;20067;-58
2022/01/07 01:15:10;;;;;;;15.57;7.17;;;;;;;;;;5148033;27;20094;-58
2022/01/07 01:17:37;;;;;;;16.63;6.65;;;;;;;;;;5147628;27;20054;-58
2022/01/07 01:20:05;;;;;;;20.55;7.50;;;;;;;;;;5146679;27;20039;-58
2022/01/07 01:22:31;;;;;;;;;;;;;;;;;;5147590;27;20047;-58
2022/01/07 01:24:57;;;;;;;18.20;8.52;;;;;;;;;;5147652;27;19982;-58
2022/01/07 01:27:23;;;;;;;15.70;8.23;;;;;;;;;;5147206;27;20578;-58
2022/01/07 01:29:49;;;;;;;24.42;8.68;;;;;;;;;;5147763;27;20039;-59
2022/01/07 01:32:16;;;;;;;16.77;7.00;;;;;;;;;;5146482;27;20046;-58
2022/01/07 01:34:42;;;;;;;23.20;8.87;;;;;;;;;;5147430;27;20039;-57
2022/01/07 01:37:08;;;;;;;26.55;8.93;;;;;;;;;;5146346;27;20135;-58
2022/01/07 01:39:35;;;;;;;13.70;7.00;;;;;;;;;;5147095;27;20099;-58
2022/01/07 01:42:01;;;;;;;15.85;8.20;;;;;;;;;;5146828;27;20050;-58
2022/01/07 01:44:27;;;;;;;24.70;9.05;;;;;;;;;;5147162;27;20047;-58
2022/01/07 01:46:54;;;;;;;20.38;7.88;;;;;;;;;;5146852;27;20099;-58
2022/01/07 01:49:20;;;;;;;22.02;8.10;;;;;;;;;;5147070;27;20043;-58
2022/01/07 01:51:46;;;;;;;18.27;8.45;;;;;;;;;;5145346;27;20074;-58
2022/01/07 01:54:12;;;;;;;19.15;8.23;;;;;;;;;;5146795;27;20100;-58
2022/01/07 01:56:38;;;;;;;16.52;7.80;;;;;;;;;;5147142;27;20088;-58
2022/01/07 01:59:04;;;;;;;18.90;7.95;;;;;;;;;;5146198;27;20043;-58
2022/01/07 02:01:31;;;;;;;16.40;8.00;;;;;;;;;;5146276;27;20039;-58
2022/01/07 02:03:57;;;;;;;18.15;8.25;;;;;;;;;;5146711;27;20061;-58
2022/01/07 02:06:23;;;;;;;19.45;9.32;;;;;;;;;;5146101;27;20126;-57
2022/01/07 02:08:50;;;;;;;18.25;8.65;;;;;;;;;;5146397;27;20043;-58
2022/01/07 02:11:16;;;;;;;22.00;9.45;;;;;;;;;;5146335;27;20064;-57
2022/01/07 02:13:44;;;;;;;21.52;9.43;;;;;;;;;;5146579;27;20043;-57
2022/01/07 02:16:10;;;;;;;19.10;8.52;;;;;;;;;;5146217;27;20050;-58
2022/01/07 02:18:36;;;;;;;24.83;10.13;;;;;;;;;;5146407;27;20076;-58
2022/01/07 02:21:03;;;;;;;27.05;10.40;;;;;;;;;;5145341;27;20042;-58
2022/01/07 02:23:29;;;;;;;14.68;8.35;;;;;;;;;;5146289;27;20066;-59
2022/01/07 02:25:56;;;;;;;17.05;9.27;;;;;;;;;;5146534;27;20077;-58
2022/01/07 02:28:23;;;;;;;20.55;9.45;;;;;;;;;;5146260;27;20070;-59
2022/01/07 02:30:49;;;;;;;17.98;9.57;;;;;;;;;;5145582;27;20520;-58
2022/01/07 02:33:15;;;;;;;17.95;8.95;;;;;;;;;;5146232;27;20043;-57
2022/01/07 02:35:45;;;;;;;22.00;8.93;;;;;;;;;;5145737;27;20039;-57
2022/01/07 02:38:11;;;;;;;18.98;10.30;;;;;;;;;;5145925;27;20051;-59
2022/01/07 02:40:37;;;;;;;15.45;10.20;;;;;;;;;;5145606;27;20081;-58
2022/01/07 02:43:04;;;;;;;25.00;9.02;;;;;;;;;;5145956;27;20047;-57
2022/01/07 02:45:30;;;;;;;14.75;10.05;;;;;;;;;;5145528;27;20079;-58
2022/01/07 02:47:58;;;;;;;24.45;10.73;;;;;;;;;;5145711;27;20102;-58
2022/01/07 02:50:28;;;;;;;14.48;9.48;;;;;;;;;;5145048;27;20077;-58
2022/01/07 02:52:54;;;;;;;21.58;9.95;;;;;;;;;;5145957;27;20055;-58
2022/01/07 02:55:21;;;;;;;15.82;8.93;;;;;;;;;;5145761;27;20050;-58
2022/01/07 02:57:47;;;;;;;16.85;9.20;;;;;;;;;;5145719;27;20046;-57
2022/01/07 03:00:13;;;;;;;16.85;9.63;;;;;;;;;;5145268;27;20103;-58
2022/01/07 03:02:40;;;;;;;18.27;8.35;;;;;;;;;;5145639;27;20051;-57
2022/01/07 03:05:07;;;;;;;19.40;10.30;;;;;;;;;;5145172;27;20046;-57
2022/01/07 03:07:34;;;;;;;20.27;11.15;;;;;;;;;;5145758;27;20085;-57
2022/01/07 03:10:00;;;;;;;12.80;8.73;;;;;;;;;;5145205;27;20043;-57
2022/01/07 03:12:26;;;;;;;18.30;10.35;;;;;;;;;;5145475;27;20322;-57
2022/01/07 03:14:52;;;;;;;18.67;10.85;;;;;;;;;;5145546;27;20036;-58
2022/01/07 03:17:18;;;;;;;14.82;9.52;;;;;;;;;;5145208;28;20046;-58
2022/01/07 03:19:45;;;;;;;18.27;10.45;;;;;;;;;;5145180;28;20043;-59
2022/01/07 03:22:11;;;;;;;19.80;10.52;;;;;;;;;;5144375;28;20085;-56
2022/01/07 03:24:38;;;;;;;18.70;11.13;;;;;;;;;;5145519;28;20072;-56
2022/01/07 03:27:05;;;;;;;14.77;8.30;;;;;;;;;;5145421;28;20050;-57
2022/01/07 03:29:31;;;;;;;19.90;11.70;;;;;;;;;;5145331;28;20043;-58
2022/01/07 03:31:57;;;;;;;14.63;9.27;;;;;;;;;;5144951;28;20053;-58
2022/01/07 03:34:23;;;;;;;14.38;9.23;;;;;;;;;;5145648;28;20122;-58
2022/01/07 03:36:49;;;;;;;18.33;11.10;;;;;;;;;;5144640;28;20114;-58
2022/01/07 03:39:15;;;;;;;22.02;11.13;;;;;;;;;;5145243;28;20039;-58
2022/01/07 03:41:42;;;;;;;23.10;13.23;;;;;;;;;;5144785;28;20047;-58
2022/01/07 03:44:08;;;;;;;14.35;10.50;;;;;;;;;;5145397;28;20043;-57
2022/01/07 03:46:34;;;;;;;26.10;12.40;;;;;;;;;;5145163;28;20118;-57
2022/01/07 03:49:00;;;;;;;20.23;12.00;;;;;;;;;;5145454;28;20079;-57
2022/01/07 03:51:26;;;;;;;19.77;11.90;;;;;;;;;;5144208;28;20047;-57
2022/01/07 03:53:52;;;;;;;17.80;11.10;;;;;;;;;;5139774;28;20130;-57
2022/01/07 03:56:20;;;;;;;22.48;12.10;;;;;;;;;;5123875;28;20047;-57
2022/01/07 03:58:47;;;;;;;18.35;11.98;;;;;;;;;;5124468;28;20099;-58
2022/01/07 04:01:13;;;;;;;16.45;10.98;;;;;;;;;;5133432;28;20051;-57
2022/01/07 04:03:39;;;;;;;26.38;13.10;;;;;;;;;;5145418;28;20058;-57
2022/01/07 04:06:05;;;;;;;19.50;12.23;;;;;;;;;;5144549;28;20039;-58
2022/01/07 04:08:31;;;;;;;15.93;10.02;;;;;;;;;;5144511;28;20406;-58
2022/01/07 04:10:57;;;;;;;20.25;12.48;;;;;;;;;;5144729;28;20054;-57
2022/01/07 04:13:23;;;;;;;20.23;12.68;;;;;;;;;;5145147;28;20050;-57
2022/01/07 04:15:50;;;;;;;20.67;13.02;;;;;;;;;;5145009;28;20521;-57
2022/01/07 04:18:16;;;;;;;18.15;10.32;;;;;;;;;;5145016;28;20043;-57
2022/01/07 04:20:42;;;;;;;21.52;11.85;;;;;;;;;;5143872;28;20094;-58
2022/01/07 04:23:08;;;;;;;18.90;11.30;;;;;;;;;;5145712;27;20051;-58
2022/01/07 04:25:35;;;;;;;16.00;11.45;;;;;;;;;;5148377;27;20051;-57
2022/01/07 04:28:03;;;;;;;15.88;11.90;;;;;;;;;;5148463;27;20067;-58
2022/01/07 04:30:32;;;;;;;15.73;11.80;;;;;;;;;;5148513;27;20035;-58
2022/01/07 04:32:58;;;;;;;18.70;11.38;;;;;;;;;;5127881;28;20051;-57
2022/01/07 04:35:25;;;;;;;17.95;10.32;;;;;;;;;;5138628;27;20047;-57
2022/01/07 04:37:51;;;;;;;17.25;11.93;;;;;;;;;;5148086;27;20545;-57
2022/01/07 04:40:18;;;;;;;20.70;12.00;;;;;;;;;;5147888;27;20043;-57
2022/01/07 04:42:45;;;;;;;17.30;11.23;;;;;;;;;;5148560;27;20051;-57
2022/01/07 04:45:12;;;;;;;17.58;11.75;;;;;;;;;;5148690;27;20352;-58
2022/01/07 04:47:40;;;;;;;15.52;11.05;;;;;;;;;;5147855;27;20035;-57
2022/01/07 04:50:07;;;;;;;17.80;12.00;;;;;;;;;;5147217;27;20058;-57
2022/01/07 04:52:33;;;;;;;14.48;10.32;;;;;;;;;;5148007;27;20050;-58
2022/01/07 04:55:00;;;;;;;18.48;10.88;;;;;;;;;;5147912;27;20111;-57
2022/01/07 04:57:26;;;;;;;22.67;12.85;;;;;;;;;;5147855;27;20047;-58
2022/01/07 04:59:52;;;;;;;16.10;10.98;;;;;;;;;;5147910;27;20043;-58
2022/01/07 05:02:20;;;;;;;16.20;11.40;;;;;;;;;;5147459;27;20123;-58
2022/01/07 05:04:46;;;;;;;16.02;11.75;;;;;;;;;;5129303;27;20051;-57
2022/01/07 05:07:13;;;;;;;20.67;12.30;;;;;;;;;;5147168;27;20502;-58
2022/01/07 05:09:39;;;;;;;16.48;11.88;;;;;;;;;;5147859;27;20043;-57
2022/01/07 05:12:05;;;;;;;20.90;13.35;;;;;;;;;;5147272;27;20057;-57
2022/01/07 05:14:31;;;;;;;16.83;12.05;;;;;;;;;;5148115;27;20107;-57
2022/01/07 05:16:57;;;;;;;19.02;11.43;;;;;;;;;;5147450;27;20051;-57
2022/01/07 05:19:23;;;;;;;16.52;12.35;;;;;;;;;;5147702;27;20100;-57
2022/01/07 05:21:50;;;;;;;20.42;12.95;;;;;;;;;;5146333;27;20051;-58
2022/01/07 05:24:16;;;;;;;21.50;12.20;;;;;;;;;;5146976;27;20108;-57
2022/01/07 05:26:42;;;;;;;19.00;11.85;;;;;;;;;;5147641;27;20102;-56
2022/01/07 05:29:08;;;;;;;18.05;11.18;;;;;;;;;;5147393;27;20047;-55
2022/01/07 05:31:34;;;;;;;15.73;11.15;;;;;;;;;;5146990;27;20035;-57
2022/01/07 05:34:00;;;;;;;18.73;11.48;;;;;;;;;;5146282;27;20121;-57
2022/01/07 05:36:26;;;;;;;14.88;11.57;;;;;;;;;;5146501;27;20043;-57
2022/01/07 05:38:53;;;;;;;14.73;10.18;;;;;;;;;;5146859;27;20045;-56
2022/01/07 05:41:19;;;;;;;15.90;11.00;;;;;;;;;;5147315;27;20039;-57
2022/01/07 05:43:46;;;;;;;13.48;9.10;;;;;;;;;;5146698;27;20082;-58
2022/01/07 05:46:14;;;;;;;13.82;9.95;;;;;;;;;;5147063;27;20158;-57
2022/01/07 05:48:41;;;;;;;17.63;10.52;;;;;;;;;;5147010;27;20046;-57
2022/01/07 05:51:08;;;;;;;17.75;11.98;;;;;;;;;;5146202;27;20039;-57
2022/01/07 05:53:34;;;;;;;14.30;8.77;;;;;;;;;;5146388;27;20050;-57
2022/01/07 05:56:00;;;;;;;21.38;12.65;;;;;;;;;;5147161;27;20039;-57
2022/01/07 05:58:26;;;;;;;15.73;8.95;;;;;;;;;;5146812;27;20122;-57
2022/01/07 06:00:52;;;;;;;18.95;12.32;;;;;;;;;;5146638;27;20042;-57
2022/01/07 06:03:18;;;;;;;13.63;11.00;;;;;;;;;;5146183;27;20490;-57
2022/01/07 06:05:44;;;;;;;22.25;10.52;;;;;;;;;;5146260;27;20046;-56
2022/01/07 06:08:10;;;;;;;19.00;11.38;;;;;;;;;;5146568;27;20529;-57
2022/01/07 06:10:37;;;;;;;17.83;12.05;;;;;;;;;;5146216;27;20043;-57
2022/01/07 06:13:03;;;;;;;17.33;10.30;;;;;;;;;;5146303;27;20075;-57
2022/01/07 06:15:29;;;;;;;15.30;10.98;;;;;;;;;;5146200;27;20047;-58
2022/01/07 06:17:55;;;;;;;20.17;11.43;;;;;;;;;;5146130;27;20413;-58
2022/01/07 06:20:21;;;;;;;17.80;11.60;;;;;;;;;;5145523;27;20385;-58
2022/01/07 06:22:48;;;;;;;20.55;10.77;;;;;;;;;;5145842;27;20130;-57
2022/01/07 06:25:14;;;;;;;15.18;10.32;;;;;;;;;;5145929;27;20062;-57
2022/01/07 06:27:40;;;;;;;14.07;9.40;;;;;;;;;;5146173;27;20046;-57
2022/01/07 06:30:07;;;;;;;13.82;11.00;;;;;;;;;;5146188;27;20102;-57
2022/01/07 06:32:33;;;;;;;16.17;11.80;;;;;;;;;;5145863;27;20035;-57
2022/01/07 06:35:00;;;;;;;16.30;10.93;;;;;;;;;;5146243;27;20047;-57
2022/01/07 06:37:27;;;;;;;17.92;10.75;;;;;;;;;;5145602;27;20047;-57
2022/01/07 06:39:53;;;;;;;15.40;10.23;;;;;;;;;;5145904;27;20047;-58
2022/01/07 06:42:19;;;;;;;17.83;11.20;;;;;;;;;;5145418;27;20099;-57
2022/01/07 06:44:45;;;;;;;17.77;12.85;;;;;;;;;;5145869;27;20102;-57
2022/01/07 06:47:11;;;;;;;13.95;9.85;;;;;;;;;;5145078;27;20039;-57
2022/01/07 06:49:37;;;;;;;19.58;11.15;;;;;;;;;;5145806;27;20039;-57
2022/01/07 06:52:04;;;;;;;19.58;11.75;;;;;;;;;;5145434;27;20043;-57
2022/01/07 06:54:31;;;;;;;13.98;10.20;;;;;;;;;;5145639;27;20102;-58
2022/01/07 06:56:57;;;;;;;19.00;11.77;;;;;;;;;;5145187;27;20047;-58
2022/01/07 06:59:24;;;;;;;12.60;10.20;;;;;;;;;;5145488;27;20494;-57
2022/01/07 07:01:50;;;;;;;17.45;11.15;;;;;;;;;;5145465;27;20108;-58
2022/01/07 07:04:17;;;;;;;17.17;9.98;;;;;;;;;;5146090;27;20054;-57
2022/01/07 07:06:43;;;;;;;15.73;11.57;;;;;;;;;;5144849;27;20179;-58
2022/01/07 07:09:09;;;;;;;14.48;10.20;;;;;;;;;;5145181;27;20125;-57
2022/01/07 07:11:35;;;;;;;14.52;11.07;;;;;;;;;;5145407;27;20072;-57
2022/01/07 07:14:02;;;;;;;16.45;11.30;;;;;;;;;;5145452;27;20072;-57
2022/01/07 07:16:28;;;;;;;12.80;8.88;;;;;;;;;;5126791;27;20043;-58
2022/01/07 07:18:54;;;;;;;21.40;10.75;;;;;;;;;;5145586;27;20050;-58
2022/01/07 07:21:20;;;;;;;20.75;11.85;;;;;;;;;;5144667;28;20045;-58
2022/01/07 07:23:46;;;;;;;14.45;11.15;;;;;;;;;;5144965;28;20078;-57
2022/01/07 07:26:12;;;;;;;17.00;12.43;;;;;;;;;;5145132;28;20043;-58
2022/01/07 07:28:39;;;;;;;20.50;12.80;;;;;;;;;;5145328;28;20051;-58
2022/01/07 07:31:09;;;;;;;19.33;11.57;;;;;;;;;;5145332;28;20044;-58
2022/01/07 07:38:53;;;;;;;14.25;11.57;;;;;;;;;;5145010;28;20075;-58
2022/01/07 07:41:19;;;;;;;17.83;13.15;;;;;;;;;;5145204;28;20102;-58
2022/01/07 07:43:47;;;;;;;17.75;12.98;;;;;;;;;;5144745;28;20032;-57
2022/01/07 07:46:13;;;;;;;;;;;;;;;;;;5145359;28;20048;-57
2022/01/07 07:48:40;;;;;;;17.23;13.18;;;;;;;;;;5145417;28;19928;-57
2022/01/07 07:51:06;;;;;;;19.88;14.65;;;;;;;;;;5144370;28;20526;-57
2022/01/07 07:53:32;;;;;;;17.98;13.38;;;;;;;;;;5144333;28;20051;-58
2022/01/07 07:55:58;;;;;;;16.98;11.73;;;;;;;;;;5145112;28;20447;-58
2022/01/07 07:58:27;;;;;;;20.15;14.65;;;;;;;;;;5145328;27;20130;-57
2022/01/07 08:00:53;;;;;;;20.00;14.85;;;;;;;;;;5147769;27;20067;-57
2022/01/07 08:03:23;;;;;;;24.02;15.10;;;;;;;;;;5144622;27;20074;-57
2022/01/07 08:05:49;;;;;;;24.35;15.43;;;;;;;;;;5136289;27;20031;-58
2022/01/07 08:08:16;;;;;;;27.10;16.30;;;;;;;;;;5148007;27;20413;-58
2022/01/07 08:10:48;;;;;;;24.33;16.67;;;;;;;;;;5145618;27;20068;-58
2022/01/07 08:13:30;;;;;;;29.38;16.25;;;;;;;;;;5140165;27;20346;-57
2022/01/07 08:16:02;;;;;;;24.95;14.68;;;;;;;;;;5143038;27;20061;-58
2022/01/07 08:18:29;;;;;;;27.17;15.95;;;;;;;;;;5142869;27;20051;-57
2022/01/07 08:20:57;;;;;;;31.73;16.58;;;;;;;;;;5146269;27;20039;-57
2022/01/07 08:23:23;;;;;;;25.52;16.13;;;;;;;;;;5147107;27;20064;-56
2022/01/07 08:25:50;;;;;;;21.73;15.23;;;;;;;;;;5147741;27;20058;-58
2022/01/07 08:28:17;;;;;;;30.95;16.48;;;;;;;;;;5147514;27;20098;-58
2022/01/07 08:31:01;;;;;;;23.33;14.20;;;;;;;;;;5145605;27;20082;-58
2022/01/07 08:36:16;;;;;;;25.63;15.35;;;;;;;;;;5140857;27;20046;-57
2022/01/07 08:38:43;;;;;;;24.13;15.88;;;;;;;;;;5146114;27;20051;-58
2022/01/07 08:41:09;;;;;;;28.63;15.35;;;;;;;;;;5146425;27;20264;-57
2022/01/07 08:43:35;;;;;;;22.98;16.85;;;;;;;;;;5147090;27;20122;-58
2022/01/07 08:46:01;;;;;;;32.33;18.73;;;;;;;;;;5146003;27;20046;-58
2022/01/07 08:48:28;;;;;;;30.65;18.10;;;;;;;;;;5140954;27;20046;-57
2022/01/07 08:50:54;;;;;;;36.45;18.77;;;;;;;;;;5137464;27;20094;-57
2022/01/07 08:53:21;;;;;;;26.20;16.25;;;;;;;;;;5140409;27;20107;-56
2022/01/07 08:55:47;;;;;;;33.35;17.80;;;;;;;;;;5135237;27;20099;-59
2022/01/07 08:58:13;;;;;;;32.70;17.33;;;;;;;;;;5139139;27;20047;-56
2022/01/07 09:00:39;;;;;;;31.25;18.27;;;;;;;;;;5139861;27;20118;-57
2022/01/07 09:03:06;;;;;;;29.13;18.33;;;;;;;;;;5142074;27;20122;-57
2022/01/07 09:05:32;;;;;;;28.08;18.55;;;;;;;;;;5139584;27;20039;-57
2022/01/07 09:07:58;;;;;;;28.83;18.58;;;;;;;;;;5143164;27;20375;-57
2022/01/07 09:10:24;;;;;;;34.83;17.55;;;;;;;;;;5139433;27;20043;-57
2022/01/07 09:12:50;;;;;;;32.10;17.15;;;;;;;;;;5144168;27;20506;-57
2022/01/07 09:15:17;;;;;;;30.13;18.08;;;;;;;;;;5146063;27;20043;-57
2022/01/07 09:17:43;;;;;;;30.85;18.27;;;;;;;;;;5137090;27;20074;-58
2022/01/07 09:20:10;;;;;;;34.22;19.40;;;;;;;;;;5137340;27;20058;-57
2022/01/07 09:22:37;;;;;;;40.00;18.75;;;;;;;;;;5145232;27;20126;-57
2022/01/07 09:25:04;;;;;;;30.40;18.20;;;;;;;;;;5134505;27;20052;-56
2022/01/07 09:27:30;;;;;;;31.23;18.90;;;;;;;;;;5145177;27;20067;-56
2022/01/07 09:29:57;;;;;;;30.25;16.85;;;;;;;;;;5140751;27;20147;-57
2022/01/07 09:32:23;;;;;;;27.98;18.25;;;;;;;;;;5141186;27;20126;-57
2022/01/07 09:34:49;;;;;;;27.85;17.95;;;;;;;;;;5144685;27;20062;-57
2022/01/07 09:37:15;;;;;;;25.75;17.75;;;;;;;;;;5143987;27;20040;-58
2022/01/07 09:39:41;;;;;;;29.17;17.73;;;;;;;;;;5141412;27;20092;-59
2022/01/07 09:42:08;;;;;;;35.33;18.65;;;;;;;;;;5143385;27;20070;-58
2022/01/07 09:44:42;;;;;;;31.63;19.58;;;;;;;;;;5138996;27;20043;-57
2022/01/07 09:47:11;;;;;;;35.78;19.17;;;;;;;;;;5141653;27;20079;-57
2022/01/07 09:49:37;;;;;;;34.25;19.08;;;;;;;;;;5142311;27;20047;-58
2022/01/07 09:52:04;;;;;;;31.10;18.42;;;;;;;;;;5143626;27;20035;-57
2022/01/07 09:54:31;;;;;;;28.63;17.98;;;;;;;;;;5142118;27;20039;-57
2022/01/07 09:56:57;;;;;;;35.42;17.55;;;;;;;;;;5143826;27;20047;-58
2022/01/07 09:59:23;;;;;;;40.80;19.58;;;;;;;;;;5145054;27;20046;-57
2022/01/07 10:01:58;;;;;;;35.78;17.77;;;;;;;;;;5144725;27;20043;-56
2022/01/07 10:04:34;;;;;;;27.67;16.80;;;;;;;;;;5144820;27;20152;-57
2022/01/07 10:07:10;;;;;;;23.90;15.23;;;;;;;;;;5141490;27;20579;-57
2022/01/07 10:09:37;;;;;;;33.55;15.60;;;;;;;;;;5142088;27;20043;-58
2022/01/07 10:12:04;;;;;;;27.07;15.37;;;;;;;;;;5144047;27;20314;-57
2022/01/07 10:14:30;;;;;;;22.15;14.02;;;;;;;;;;5139647;27;20043;-58
2022/01/07 10:16:57;;;;;;;13.82;9.07;;;;;;;;;;5141345;27;20039;-57
2022/01/07 10:19:43;;;;;;;18.00;10.13;;;;;;;;;;5143250;27;20035;-57
2022/01/07 10:22:13;;;;;;;12.60;8.80;;;;;;;;;;5135106;27;20126;-57
2022/01/07 10:25:12;;;;;;;11.93;6.93;;;;;;;;;;5144252;27;20064;-55
2022/01/07 10:27:39;;;;;;;5.95;4.45;;;;;;;;;;5079534;28;20045;-57
2022/01/07 10:30:10;;;;;;;9.65;2.97;;;;;;;;;;5075053;28;20079;-57
2022/01/07 10:32:37;;;;;;;5.82;2.45;;;;;;;;;;5078829;28;20057;-56
2022/01/07 10:35:17;;;;;;;3.53;2.40;;;;;;;;;;5075874;28;20178;-59
2022/01/07 10:37:58;;;;;;;7.20;3.15;;;;;;;;;;5055969;28;20049;-61
2022/01/07 10:40:24;;;;;;;6.47;2.67;;;;;;;;;;5079637;28;20032;-61
2022/01/07 10:42:53;;;;;;;4.45;2.90;;;;;;;;;;5079000;28;20063;-60
2022/01/07 10:45:19;;;;;;;4.75;2.88;;;;;;;;;;5071154;28;20055;-60
2022/01/07 10:47:52;;;;;;;5.53;3.45;;;;;;;;;;5079254;28;20044;-60
2022/01/07 10:50:20;;;;;;;7.88;3.63;;;;;;;;;;5079160;28;20048;-57
2022/01/07 10:52:47;;;;;;;6.78;3.60;;;;;;;;;;5074903;28;20032;-60
2022/01/07 10:55:14;;;;;;;7.10;3.92;;;;;;;;;;5080776;28;20040;-59
2022/01/07 10:57:43;;;;;;;7.43;2.78;;;;;;;;;;5080122;28;20060;-58
2022/01/07 11:00:11;;;;;;;8.73;2.70;;;;;;;;;;5080033;28;20055;-60
2022/01/07 11:02:37;;;;;;;8.63;2.50;;;;;;;;;;5091851;28;20463;-56
2022/01/07 11:05:04;;;;;;;5.30;2.67;;;;;;;;;;5141795;27;20053;-58
2022/01/07 11:07:30;;;;;;;12.18;2.67;;;;;;;;;;5142921;27;20087;-57
2022/01/07 11:09:56;;;;;;;7.75;2.50;;;;;;;;;;5140393;27;20067;-56
2022/01/07 11:12:25;;;;;;;10.15;2.70;;;;;;;;;;5142672;27;20112;-61
2022/01/07 11:14:51;;;;;;;9.27;2.28;;;;;;;;;;5137212;27;20039;-62
2022/01/07 11:17:21;;;;;;;6.30;1.55;;;;;;;;;;5121654;27;20556;-61
2022/01/07 11:19:59;;;;;;;10.93;2.47;;;;;;;;;;5142784;27;20039;-63
2022/01/07 11:22:26;;;;;;;7.55;2.50;;;;;;;;;;5141508;28;20055;-62
2022/01/07 11:24:54;;;;;;;4.55;1.95;;;;;;;;;;5138814;28;20080;-62
2022/01/07 11:27:27;;;;;;;7.45;1.88;;;;;;;;;;5138677;28;20084;-62
2022/01/07 11:29:54;;;;;;;6.45;2.47;;;;;;;;;;5144781;28;20118;-61
2022/01/07 11:32:28;;;;;;;12.82;3.00;;;;;;;;;;5137578;27;20047;-63
2022/01/07 11:35:14;;;;;;;7.32;3.38;;;;;;;;;;5146865;27;20706;-61
2022/01/07 11:37:42;;;;;;;9.18;3.08;;;;;;;;;;5144890;27;20047;-62
2022/01/07 11:40:08;;;;;;;11.10;3.53;;;;;;;;;;5130437;27;20191;-61
2022/01/07 11:42:41;;;;;;;7.40;4.00;;;;;;;;;;5147288;27;20062;-61
2022/01/07 11:45:27;;;;;;;10.25;3.67;;;;;;;;;;5144644;27;20160;-61
2022/01/07 11:47:54;;;;;;;11.13;4.00;;;;;;;;;;5134271;27;20518;-58
2022/01/07 11:50:20;;;;;;;6.33;3.87;;;;;;;;;;5139644;27;20099;-60
2022/01/07 11:53:02;;;;;;;11.30;4.43;;;;;;;;;;5142525;27;20314;-60
2022/01/07 11:55:37;;;;;;;8.00;4.38;;;;;;;;;;5132174;27;20489;-60
2022/01/07 11:58:05;;;;;;;12.27;4.20;;;;;;;;;;5136019;27;20070;-59
2022/01/07 12:00:50;;;;;;;13.75;4.93;;;;;;;;;;5119929;27;20046;-59
2022/01/07 12:03:35;;;;;;;8.48;4.57;;;;;;;;;;5134681;27;20071;-59
2022/01/07 12:06:02;;;;;;;7.38;3.85;;;;;;;;;;5133176;27;20047;-59
2022/01/07 12:08:40;;;;;;;13.77;4.28;;;;;;;;;;5129625;27;20067;-60
2022/01/07 12:11:07;;;;;;;11.85;4.32;;;;;;;;;;5136027;27;20039;-59
2022/01/07 12:13:36;;;;;;;7.03;3.95;;;;;;;;;;5134326;27;20047;-61
2022/01/07 12:16:03;;;;;;;8.70;4.22;;;;;;;;;;5138636;27;20064;-60
2022/01/07 12:18:35;;;;;;;18.02;4.32;;;;;;;;;;5140770;27;20039;-59
2022/01/07 12:21:03;;;;;;;15.32;5.30;;;;;;;;;;5141498;27;20047;-62
2022/01/07 12:23:29;;;;;;;15.07;5.30;;;;;;;;;;5143976;27;20313;-60
2022/01/07 12:25:57;;;;;;;14.68;5.75;;;;;;;;;;5145605;27;20551;-60
2022/01/07 12:28:23;;;;;;;17.45;5.20;;;;;;;;;;5141308;27;20075;-60
2022/01/07 12:30:50;;;;;;;17.15;5.90;;;;;;;;;;5140729;27;20564;-61
2022/01/07 12:33:16;;;;;;;14.20;4.78;;;;;;;;;;5147563;27;20123;-61
2022/01/07 12:35:43;;;;;;;12.45;4.55;;;;;;;;;;5146718;27;20042;-60
2022/01/07 12:38:10;;;;;;;10.00;5.05;;;;;;;;;;5145574;27;20043;-59
2022/01/07 12:40:36;;;;;;;14.90;5.47;;;;;;;;;;5145459;27;20103;-60
2022/01/07 12:43:02;;;;;;;13.70;4.47;;;;;;;;;;5139641;27;20376;-61
2022/01/07 12:45:30;;;;;;;7.55;4.32;;;;;;;;;;5145945;27;20126;-60
2022/01/07 12:47:57;;;;;;;18.17;4.50;;;;;;;;;;5143673;27;20092;-60
2022/01/07 12:50:24;;;;;;;10.45;3.97;;;;;;;;;;5143677;27;20039;-58
2022/01/07 12:52:51;;;;;;;10.52;4.07;;;;;;;;;;5146585;27;20065;-57
2022/01/07 12:55:19;;;;;;;9.50;3.70;;;;;;;;;;5140135;27;22036;-60
2022/01/07 12:57:58;;;;;;;8.30;2.92;;;;;;;;;;5140362;27;20062;-60
2022/01/07 13:00:26;;;;;;;8.80;3.10;;;;;;;;;;5145765;27;20055;-60
2022/01/07 13:02:59;;;;;;;8.63;3.00;;;;;;;;;;5145541;27;20073;-59
2022/01/07 13:05:29;;;;;;;10.43;3.55;;;;;;;;;;5142979;27;20049;-57
2022/01/07 13:08:00;;;;;;;8.15;3.42;;;;;;;;;;5146294;27;20047;-58
2022/01/07 13:10:30;;;;;;;8.38;3.22;;;;;;;;;;5145243;27;20039;-56
2022/01/07 13:12:58;;;;;;;8.13;3.40;;;;;;;;;;5140128;27;20040;-56
2022/01/07 13:15:37;;;;;;;8.88;3.95;;;;;;;;;;5145720;27;20043;-56
2022/01/07 13:18:18;;;;;;;9.23;4.30;;;;;;;;;;5137152;27;20054;-57
2022/01/07 13:20:44;;;;;;;9.55;3.80;;;;;;;;;;5144212;27;20074;-57
2022/01/07 13:23:11;;;;;;;11.15;3.67;;;;;;;;;;5146132;27;20122;-56
2022/01/07 13:25:38;;;;;;;9.57;3.05;;;;;;;;;;5141127;27;20051;-56
2022/01/07 13:28:05;;;;;;;10.35;3.35;;;;;;;;;;5136259;27;20103;-57
2022/01/07 13:30:38;;;;;;;8.25;2.90;;;;;;;;;;5134631;27;20502;-56
2022/01/07 13:33:12;;;;;;;6.13;2.45;;;;;;;;;;5145123;27;20043;-56
2022/01/07 13:35:38;;;;;;;10.27;2.75;;;;;;;;;;5144860;27;20043;-57
2022/01/07 13:38:12;;;;;;;7.50;2.05;;;;;;;;;;5127264;27;20062;-56
2022/01/07 13:40:38;;;;;;;13.23;2.30;;;;;;;;;;5145487;27;20085;-57
2022/01/07 13:43:08;;;;;;;10.32;2.50;;;;;;;;;;5143588;27;20103;-56
2022/01/07 13:45:34;;;;;;;8.48;2.58;;;;;;;;;;5142477;27;20039;-57
2022/01/07 13:48:05;;;;;;;10.85;1.92;;;;;;;;;;5142810;27;20044;-56
2022/01/07 13:50:32;;;;;;;9.02;2.50;;;;;;;;;;5139875;27;20043;-57
2022/01/07 13:53:09;;;;;;;12.88;2.97;;;;;;;;;;5142613;27;20043;-57
2022/01/07 13:55:36;;;;;;;7.40;2.88;;;;;;;;;;5135078;27;20046;-57
2022/01/07 13:58:06;;;;;;;8.57;2.42;;;;;;;;;;5144794;27;20050;-56
2022/01/07 14:00:32;;;;;;;10.55;2.53;;;;;;;;;;5145697;27;20501;-57
2022/01/07 14:02:59;;;;;;;6.85;2.22;;;;;;;;;;5130306;27;20117;-56
2022/01/07 14:05:25;;;;;;;8.60;2.70;;;;;;;;;;5145123;27;20051;-56
2022/01/07 14:07:53;;;;;;;11.23;2.10;;;;;;;;;;5138435;27;20122;-56
2022/01/07 14:10:22;;;;;;;12.52;3.05;;;;;;;;;;5137557;27;20050;-57
2022/01/07 14:13:00;;;;;;;10.45;2.20;;;;;;;;;;5145937;27;20402;-57
2022/01/07 14:15:35;;;;;;;15.05;2.65;;;;;;;;;;5142158;27;20406;-57
2022/01/07 14:18:09;;;;;;;10.38;3.50;;;;;;;;;;5139208;27;20122;-57
2022/01/07 14:20:47;;;;;;;17.98;2.80;;;;;;;;;;5144343;27;20043;-58
2022/01/07 14:23:33;;;;;;;10.60;2.60;;;;;;;;;;5144888;27;20047;-57
2022/01/07 14:26:10;;;;;;;8.45;2.70;;;;;;;;;;5141435;27;20076;-57
2022/01/07 14:28:38;;;;;;;10.65;3.00;;;;;;;;;;5138274;27;20058;-57
2022/01/07 14:31:05;;;;;;;9.82;2.60;;;;;;;;;;5143751;27;20103;-57
2022/01/07 14:33:31;;;;;;;10.10;2.72;;;;;;;;;;5145231;27;20039;-57
2022/01/07 14:35:57;;;;;;;9.15;2.55;;;;;;;;;;5144340;27;20104;-57
2022/01/07 14:38:24;;;;;;;10.80;2.72;;;;;;;;;;5144111;27;20061;-57